Gowen, Michigan
Current Conditions -  °F | °C
As of 11:14 PM on Wednesday 28 Jan 2015 (Local Time) from KY70 Reporting Station
Overcast Overcast  
Wind Chill: 15°   Ceiling: 12000
Heat Index: 26°   Visibility: 10mi
Dew Point: 17°   Wind: 13mph
Humidity: 67%   Direction: 160°SSE
Pressure: 30.02"   Gusts: NA
Location:  43.25°N, 85.3°W
Report Text: KY70 290414Z AUTO 16011KT 10SM OVC120 M03/M08 A3002 RMK AO2 T10321085
Loading
Personal Weather Stations






























Interactive Weather Map New forecast layout! Learn more

10-Day Weather Forecast

Advertisements
Track Severe Weather on mobile